Gratis, Ohio
Current Conditions -  °F | °C
As of 8:15 PM on Saturday 22 Nov 2014 (Local Time) from KMWO Reporting Station
Overcast Overcast  
Wind Chill: 57°   Ceiling: 8000
Heat Index: 57°   Visibility: 10mi
Dew Point: 35°   Wind: 9mph
Humidity: 43%   Direction: 210°SSW
Pressure: 30.08"   Gusts: NA
Location:  39.65°N, 84.53°W
Report Text: KMWO 230115Z AUTO 21008KT 10SM BKN080 OVC100 14/01 A3008 RMK AO2 T01370014
Loading
Personal Weather Stations






























Interactive Weather Map New forecast layout! Learn more

10-Day Weather Forecast

Advertisements
Track Severe Weather on mobile